createdAt,value
2023-03-06T00:00:33.866Z,1.60
2023-03-06T00:03:00.601Z,1.98
2023-03-06T00:05:27.920Z,1.83
2023-03-06T00:07:54.772Z,1.75
2023-03-06T00:10:27.112Z,2.10
2023-03-06T00:12:55.176Z,2.03
2023-03-06T00:15:22.578Z,2.00
2023-03-06T00:17:49.293Z,2.38
2023-03-06T00:20:16.567Z,2.90
2023-03-06T00:22:43.398Z,2.20
2023-03-06T00:25:14.083Z,2.03
2023-03-06T00:27:41.021Z,2.38
2023-03-06T00:30:08.436Z,2.10
2023-03-06T00:32:35.175Z,2.22
2023-03-06T00:35:01.908Z,1.90
2023-03-06T00:37:28.543Z,1.70
2023-03-06T00:39:55.284Z,2.20
2023-03-06T00:42:21.959Z,2.35
2023-03-06T00:44:48.651Z,2.17
2023-03-06T00:47:18.327Z,2.15
2023-03-06T00:49:45.486Z,1.90
2023-03-06T00:52:13.287Z,1.90
2023-03-06T00:54:40.798Z,1.98
2023-03-06T00:57:07.652Z,2.55
2023-03-06T00:59:34.306Z,1.63
2023-03-06T01:02:01.123Z,1.92
2023-03-06T01:04:27.857Z,2.40
2023-03-06T01:06:54.474Z,2.00
2023-03-06T01:09:21.379Z,1.80
2023-03-06T01:11:47.988Z,1.90
2023-03-06T01:14:14.729Z,2.17
2023-03-06T01:16:41.341Z,2.20
2023-03-06T01:19:08.019Z,2.00
2023-03-06T01:21:34.607Z,2.22
2023-03-06T01:24:01.363Z,2.63
2023-03-06T01:26:28.059Z,2.85
2023-03-06T01:28:57.363Z,3.10
2023-03-06T01:31:25.256Z,2.90
2023-03-06T01:33:52.126Z,3.25
2023-03-06T01:36:19.047Z,3.20
2023-03-06T01:38:45.796Z,4.07
2023-03-06T01:41:15.675Z,4.20
2023-03-06T01:43:45.913Z,3.72
2023-03-06T01:46:42.273Z,3.40
2023-03-06T01:49:12.583Z,2.72
2023-03-06T01:51:49.868Z,2.70
2023-03-06T01:54:24.438Z,2.85
2023-03-06T01:56:55.424Z,3.25
2023-03-06T01:59:23.707Z,3.17
2023-03-06T02:01:51.238Z,3.53
2023-03-06T02:04:18.711Z,2.85
2023-03-06T02:06:47.422Z,2.75
2023-03-06T02:09:14.746Z,3.45
2023-03-06T02:11:44.184Z,3.70
2023-03-06T02:14:13.313Z,3.50
2023-03-06T02:16:41.717Z,4.13
2023-03-06T02:19:20.652Z,3.67
2023-03-06T02:21:47.344Z,4.13
2023-03-06T02:24:40.477Z,4.15
2023-03-06T02:27:09.534Z,4.30
2023-03-06T02:29:36.227Z,4.82
2023-03-06T02:32:03.044Z,5.47
2023-03-06T02:34:29.714Z,5.35
2023-03-06T02:37:02.554Z,4.80
2023-03-06T02:39:32.659Z,6.10
2023-03-06T02:41:59.341Z,6.20
2023-03-06T02:44:27.493Z,5.97
2023-03-06T02:46:54.309Z,5.88
2023-03-06T02:49:21.003Z,6.28
2023-03-06T02:51:47.955Z,6.90
2023-03-06T02:54:14.593Z,7.15
2023-03-06T02:56:41.195Z,7.53
2023-03-06T02:59:07.839Z,7.80
2023-03-06T03:01:34.605Z,7.43
2023-03-06T03:04:01.265Z,7.68
2023-03-06T03:06:28.068Z,8.05
2023-03-06T03:08:54.927Z,7.95
2023-03-06T03:11:21.574Z,7.32
2023-03-06T03:13:48.212Z,7.97
2023-03-06T03:16:15.418Z,7.90
2023-03-06T03:18:47.875Z,7.72
2023-03-06T03:21:15.430Z,7.30
2023-03-06T03:23:42.039Z,7.80
2023-03-06T03:26:20.136Z,6.80
2023-03-06T03:28:46.795Z,7.93
2023-03-06T03:31:14.102Z,6.95
2023-03-06T03:33:41.333Z,6.18
2023-03-06T03:36:08.626Z,6.43
2023-03-06T03:38:35.751Z,6.55
2023-03-06T03:41:03.424Z,6.50
2023-03-06T03:43:30.642Z,6.68
2023-03-06T03:45:57.335Z,5.72
2023-03-06T03:48:23.947Z,5.93
2023-03-06T03:50:50.538Z,5.68
2023-03-06T03:53:17.174Z,6.00
2023-03-06T03:55:45.992Z,6.05
2023-03-06T03:58:12.588Z,6.72
2023-03-06T04:00:39.322Z,6.10
2023-03-06T04:03:05.918Z,5.88
2023-03-06T04:05:33.843Z,6.03
2023-03-06T04:08:02.995Z,6.82
2023-03-06T04:10:29.806Z,5.90
2023-03-06T04:12:56.583Z,5.70
2023-03-06T04:15:23.523Z,6.05
2023-03-06T04:17:50.254Z,6.57
2023-03-06T04:20:17.104Z,5.15
2023-03-06T04:22:43.786Z,5.60
2023-03-06T04:25:10.627Z,5.80
2023-03-06T04:27:37.316Z,5.38
2023-03-06T04:30:05.599Z,4.57
2023-03-06T04:32:32.368Z,5.22
2023-03-06T04:34:59.041Z,5.57
2023-03-06T04:37:26.938Z,5.05
2023-03-06T04:39:53.975Z,4.47
2023-03-06T04:42:20.824Z,5.03
2023-03-06T04:44:47.460Z,4.30
2023-03-06T04:47:14.279Z,4.22
2023-03-06T04:49:40.983Z,4.50
2023-03-06T04:52:07.904Z,3.53
2023-03-06T04:54:34.564Z,4.00
2023-03-06T04:57:01.435Z,3.80
2023-03-06T04:59:28.240Z,3.20
2023-03-06T05:01:55.165Z,3.45
2023-03-06T05:04:21.865Z,3.25
2023-03-06T05:06:49.127Z,2.83
2023-03-06T05:09:15.751Z,2.95
2023-03-06T05:11:42.413Z,2.08
2023-03-06T05:14:09.080Z,2.45
2023-03-06T05:16:35.820Z,2.85
2023-03-06T05:19:02.826Z,2.80
2023-03-06T05:21:29.451Z,2.83
2023-03-06T05:23:56.116Z,2.42
2023-03-06T05:26:22.787Z,2.88
2023-03-06T05:28:49.602Z,2.67
2023-03-06T05:31:16.258Z,3.15
2023-03-06T05:33:42.912Z,2.97
2023-03-06T05:36:09.938Z,3.17
2023-03-06T05:38:36.600Z,3.45
2023-03-06T05:41:03.289Z,2.90
2023-03-06T05:43:29.946Z,2.88
2023-03-06T05:46:07.123Z,3.10
2023-03-06T05:48:34.441Z,3.13
2023-03-06T05:51:02.332Z,2.70
2023-03-06T05:53:29.370Z,2.80
2023-03-06T05:55:57.610Z,2.65
2023-03-06T05:58:24.300Z,3.15
2023-03-06T06:00:52.126Z,2.55
2023-03-06T06:03:19.971Z,2.70
2023-03-06T06:05:46.971Z,3.00
2023-03-06T06:08:13.602Z,3.10
2023-03-06T06:10:40.402Z,2.70
2023-03-06T06:13:07.247Z,2.70
2023-03-06T06:15:33.933Z,2.45
2023-03-06T06:18:00.751Z,2.85
2023-03-06T06:20:28.470Z,2.42
2023-03-06T06:22:55.510Z,2.05
2023-03-06T06:25:22.176Z,2.70
2023-03-06T06:27:48.870Z,2.33
2023-03-06T06:30:15.673Z,2.63
2023-03-06T06:32:42.441Z,2.47
2023-03-06T06:35:09.983Z,1.70
2023-03-06T06:37:36.662Z,2.25
2023-03-06T06:40:04.522Z,2.00
2023-03-06T06:42:38.087Z,1.58
2023-03-06T06:45:06.968Z,1.83
2023-03-06T06:47:34.231Z,1.48
2023-03-06T06:50:00.975Z,1.60
2023-03-06T06:52:27.741Z,1.48
2023-03-06T06:54:54.516Z,1.90
2023-03-06T06:57:21.825Z,1.83
2023-03-06T06:59:48.428Z,1.70
2023-03-06T07:02:15.918Z,1.25
2023-03-06T07:05:00.245Z,1.70
2023-03-06T07:07:27.600Z,1.40
2023-03-06T07:09:55.538Z,1.70
2023-03-06T07:12:22.178Z,1.40
2023-03-06T07:14:48.818Z,1.30
2023-03-06T07:17:15.517Z,1.67
2023-03-06T07:19:42.152Z,1.17
2023-03-06T07:22:08.840Z,1.35
2023-03-06T07:24:35.495Z,1.45
2023-03-06T07:27:02.145Z,1.63
2023-03-06T07:29:29.198Z,1.20
2023-03-06T07:31:55.927Z,1.60
2023-03-06T07:34:22.687Z,1.50
2023-03-06T07:36:50.794Z,1.35
2023-03-06T07:39:17.573Z,1.75
2023-03-06T07:41:44.316Z,1.52
2023-03-06T07:44:10.966Z,1.65
2023-03-06T07:46:37.669Z,1.60
2023-03-06T07:49:04.424Z,1.13
2023-03-06T07:51:31.045Z,1.52
2023-03-06T07:53:57.687Z,1.15
2023-03-06T07:56:24.328Z,1.50
2023-03-06T07:58:50.987Z,1.30
2023-03-06T08:01:20.026Z,1.60
2023-03-06T08:03:48.758Z,1.35
2023-03-06T08:06:19.382Z,1.05
2023-03-06T08:08:47.970Z,1.75
2023-03-06T08:11:16.402Z,1.13
2023-03-06T08:13:43.781Z,0.93
2023-03-06T08:16:11.381Z,1.08
2023-03-06T08:18:42.434Z,0.90
2023-03-06T08:21:18.197Z,1.00
2023-03-06T08:23:45.301Z,1.05
2023-03-06T08:26:14.773Z,0.90
2023-03-06T08:28:41.481Z,1.00
2023-03-06T08:31:34.531Z,0.90
2023-03-06T08:34:07.383Z,1.40
2023-03-06T08:36:34.134Z,0.80
2023-03-06T08:39:01.295Z,0.98
2023-03-06T08:41:28.284Z,1.00
2023-03-06T08:43:55.168Z,1.23
2023-03-06T08:46:24.757Z,0.60
2023-03-06T08:48:51.804Z,0.90
2023-03-06T08:51:19.747Z,0.70
2023-03-06T08:53:46.582Z,0.65
2023-03-06T08:56:28.021Z,0.50
2023-03-06T08:58:56.374Z,0.50
2023-03-06T09:01:26.053Z,0.57
2023-03-06T09:03:55.677Z,0.50
2023-03-06T09:06:22.970Z,0.70
2023-03-06T09:08:52.009Z,0.60
2023-03-06T09:11:19.276Z,0.70
2023-03-06T09:13:45.942Z,0.63
2023-03-06T09:16:12.861Z,0.50
2023-03-06T09:18:39.782Z,0.45
2023-03-06T09:21:09.219Z,0.40
2023-03-06T09:23:37.196Z,0.32
2023-03-06T09:26:03.981Z,0.47
2023-03-06T09:28:30.703Z,0.30
2023-03-06T09:30:57.794Z,0.50
2023-03-06T09:33:24.510Z,0.50
2023-03-06T09:35:54.379Z,0.60
2023-03-06T09:38:23.432Z,0.57
2023-03-06T09:41:02.141Z,0.20
2023-03-06T09:43:44.577Z,0.50
2023-03-06T09:46:24.550Z,0.20
2023-03-06T09:49:23.156Z,0.20
2023-03-06T09:51:52.562Z,0.38
2023-03-06T09:54:22.744Z,0.40
2023-03-06T09:56:50.792Z,0.38
2023-03-06T09:59:23.271Z,0.40
2023-03-06T10:02:02.804Z,0.25
2023-03-06T10:04:42.314Z,0.50
2023-03-06T10:07:48.141Z,0.50
2023-03-06T10:10:26.718Z,0.40
2023-03-06T10:13:11.624Z,0.47
2023-03-06T10:15:43.995Z,0.60
2023-03-06T10:18:12.260Z,0.43
2023-03-06T10:21:19.305Z,0.60
2023-03-06T10:23:54.586Z,0.50
2023-03-06T10:26:36.276Z,0.32
2023-03-06T10:29:29.658Z,0.70
2023-03-06T10:32:10.707Z,0.68
2023-03-06T10:34:39.914Z,0.50
2023-03-06T10:37:18.932Z,0.47
2023-03-06T10:39:46.286Z,0.30
2023-03-06T10:42:13.280Z,0.32
2023-03-06T10:44:39.930Z,0.30
2023-03-06T10:47:42.260Z,0.30
2023-03-06T10:53:05.452Z,0.30
2023-03-06T10:55:37.636Z,0.22
2023-03-06T10:58:36.428Z,0.60
2023-03-06T11:01:21.891Z,0.43
2023-03-06T11:03:48.801Z,0.68
2023-03-06T11:06:31.773Z,0.60
2023-03-06T11:09:16.409Z,0.50
2023-03-06T11:11:43.065Z,0.60
2023-03-06T11:14:18.005Z,0.50
2023-03-06T11:16:53.019Z,0.52
2023-03-06T11:19:26.459Z,0.68
2023-03-06T11:22:17.993Z,0.80
2023-03-06T11:24:51.308Z,0.70
2023-03-06T11:27:34.776Z,0.70
2023-03-06T11:30:24.271Z,0.70
2023-03-06T11:32:57.538Z,1.10
2023-03-06T11:35:28.369Z,0.80
2023-03-06T11:38:04.281Z,0.80
2023-03-06T11:40:43.123Z,0.70
2023-03-06T11:43:48.644Z,0.70
2023-03-06T11:46:40.083Z,1.00
2023-03-06T11:49:16.821Z,0.77
2023-03-06T11:51:59.229Z,1.15
2023-03-06T11:54:26.315Z,0.90
2023-03-06T11:57:04.756Z,1.10
2023-03-06T12:00:06.997Z,0.95
2023-03-06T12:02:59.757Z,6.18
2023-03-06T12:05:34.954Z,10.60
2023-03-06T12:08:19.823Z,4.40
2023-03-06T12:10:54.383Z,3.28
2023-03-06T12:14:00.972Z,1.42
2023-03-06T12:16:35.717Z,1.63
2023-03-06T12:19:16.325Z,1.40
2023-03-06T12:22:04.058Z,1.08
2023-03-06T12:25:00.464Z,1.08
2023-03-06T12:28:07.005Z,1.50
2023-03-06T12:31:02.443Z,1.30
2023-03-06T12:33:47.153Z,1.90
2023-03-06T12:36:21.554Z,1.60
2023-03-06T12:38:51.578Z,1.95
2023-03-06T12:41:43.232Z,2.10
2023-03-06T12:44:20.233Z,2.28
2023-03-06T12:46:57.599Z,2.80
2023-03-06T12:49:33.340Z,3.15
2023-03-06T12:52:02.100Z,3.25
2023-03-06T12:54:31.298Z,3.53
2023-03-06T12:57:00.416Z,3.95
2023-03-06T12:59:37.018Z,3.38
2023-03-06T13:02:27.638Z,3.63
2023-03-06T13:05:29.728Z,3.88
2023-03-06T13:08:31.627Z,4.38
2023-03-06T13:11:27.632Z,3.65
2023-03-06T13:13:54.897Z,4.32
2023-03-06T13:16:30.568Z,4.45
2023-03-06T13:19:20.008Z,4.20
2023-03-06T13:21:55.417Z,3.85
2023-03-06T13:24:29.087Z,4.38
2023-03-06T13:26:58.609Z,4.97
2023-03-06T13:29:37.326Z,5.63
2023-03-06T13:32:03.949Z,5.00
2023-03-06T13:34:38.827Z,5.68
2023-03-06T13:37:17.090Z,5.70
2023-03-06T13:39:55.606Z,5.35
2023-03-06T13:43:03.618Z,5.82
2023-03-06T13:45:37.680Z,6.70
2023-03-06T13:48:30.240Z,6.13
2023-03-06T13:50:53.550Z,6.82
2023-03-06T13:53:40.548Z,6.72
2023-03-06T13:56:38.005Z,6.60
2023-03-06T13:59:46.304Z,6.30
2023-03-06T14:02:39.579Z,6.70
2023-03-06T14:05:15.113Z,6.53
2023-03-06T14:08:01.783Z,6.90
2023-03-06T14:10:31.299Z,5.57
2023-03-06T14:13:05.912Z,5.00
2023-03-06T14:15:40.434Z,5.05
2023-03-06T14:18:19.075Z,4.88
2023-03-06T14:21:00.260Z,4.57
2023-03-06T14:23:26.858Z,4.57
2023-03-06T14:26:02.590Z,4.10
2023-03-06T14:28:31.059Z,4.10
2023-03-06T14:30:59.791Z,4.00
2023-03-06T14:33:48.572Z,3.50
2023-03-06T14:36:19.804Z,3.25
2023-03-06T14:38:53.525Z,3.00
2023-03-06T14:41:29.609Z,3.80
2023-03-06T14:44:17.570Z,3.13
2023-03-06T14:46:46.286Z,3.28
2023-03-06T14:49:15.198Z,3.20
2023-03-06T14:51:45.805Z,3.55
2023-03-06T14:54:34.217Z,3.67
2023-03-06T14:57:05.934Z,3.90
2023-03-06T14:59:55.999Z,3.95
2023-03-06T15:02:25.970Z,4.32
2023-03-06T15:04:57.253Z,3.63
2023-03-06T15:07:28.971Z,3.35
2023-03-06T15:09:55.864Z,4.13
2023-03-06T15:12:31.174Z,3.65
2023-03-06T15:15:10.440Z,4.22
2023-03-06T15:17:46.002Z,4.72
2023-03-06T15:20:41.215Z,4.15
2023-03-06T15:23:26.208Z,4.40
2023-03-06T15:26:00.860Z,4.55
2023-03-06T15:28:32.613Z,3.95
2023-03-06T15:31:16.976Z,4.38
2023-03-06T15:33:44.031Z,4.10
2023-03-06T15:36:27.596Z,4.25
2023-03-06T15:38:56.334Z,4.70
2023-03-06T15:41:36.293Z,3.58
2023-03-06T15:44:10.928Z,4.00
2023-03-06T15:46:37.684Z,3.92
2023-03-06T15:49:04.637Z,4.38
2023-03-06T15:51:31.977Z,4.43
2023-03-06T15:54:11.383Z,4.43
2023-03-06T15:56:41.705Z,4.60
2023-03-06T15:59:33.050Z,5.40
2023-03-06T16:02:10.652Z,4.78
2023-03-06T16:04:37.302Z,6.20
2023-03-06T16:07:04.191Z,7.47
2023-03-06T16:09:30.866Z,6.55
2023-03-06T16:11:57.498Z,6.70
2023-03-06T16:14:24.259Z,6.75
2023-03-06T16:16:52.620Z,6.50
2023-03-06T16:19:29.252Z,6.63
2023-03-06T16:21:56.971Z,6.03
2023-03-06T16:24:24.741Z,7.05
2023-03-06T16:26:53.328Z,8.27
2023-03-06T16:29:25.357Z,8.27
2023-03-06T16:31:52.549Z,8.68
2023-03-06T16:34:19.708Z,8.38
2023-03-06T16:36:48.179Z,9.82
2023-03-06T16:39:20.576Z,9.93
2023-03-06T16:41:49.199Z,9.07
2023-03-06T16:44:15.922Z,10.65
2023-03-06T16:46:47.460Z,10.35
2023-03-06T16:49:19.631Z,12.07
2023-03-06T16:51:46.649Z,11.27
2023-03-06T16:54:13.974Z,11.27
2023-03-06T16:56:41.049Z,12.52
2023-03-06T16:59:08.341Z,11.60
2023-03-06T17:01:35.264Z,10.98
2023-03-06T17:04:02.092Z,11.15
2023-03-06T17:06:29.046Z,9.38
2023-03-06T17:08:57.795Z,10.07
2023-03-06T17:11:24.909Z,10.15
2023-03-06T17:13:51.671Z,11.02
2023-03-06T17:16:18.442Z,10.77
2023-03-06T17:18:46.305Z,11.10
2023-03-06T17:21:15.647Z,9.77
2023-03-06T17:23:43.058Z,10.45
2023-03-06T17:26:18.664Z,9.75
2023-03-06T17:28:46.081Z,10.02
2023-03-06T17:31:22.041Z,9.02
2023-03-06T17:33:49.337Z,9.48
2023-03-06T17:36:16.878Z,8.82
2023-03-06T17:38:43.949Z,8.63
2023-03-06T17:41:11.911Z,9.63
2023-03-06T17:43:39.125Z,9.32
2023-03-06T17:46:08.013Z,10.02
2023-03-06T17:48:35.413Z,9.77
2023-03-06T17:51:02.210Z,9.45
2023-03-06T17:53:29.017Z,10.05
2023-03-06T17:55:57.885Z,10.65
2023-03-06T17:58:25.274Z,9.13
2023-03-06T18:00:52.013Z,10.50
2023-03-06T18:03:18.962Z,9.88
2023-03-06T18:05:45.663Z,11.20
2023-03-06T18:08:12.288Z,10.70
2023-03-06T18:10:40.511Z,10.05
2023-03-06T18:13:08.368Z,11.63
2023-03-06T18:15:39.507Z,12.25
2023-03-06T18:18:06.733Z,13.53
2023-03-06T18:20:33.463Z,9.45
2023-03-06T18:23:03.444Z,11.85
2023-03-06T18:25:32.036Z,12.07
2023-03-06T18:27:58.953Z,16.02
2023-03-06T18:30:26.327Z,13.38
2023-03-06T18:32:53.587Z,12.82
2023-03-06T18:35:20.600Z,13.18
2023-03-06T18:37:47.209Z,14.38
2023-03-06T18:40:14.316Z,12.25
2023-03-06T18:42:41.029Z,12.73
2023-03-06T18:45:08.178Z,12.65
2023-03-06T18:47:34.909Z,11.50
2023-03-06T18:50:02.952Z,13.13
2023-03-06T18:52:29.626Z,12.73
2023-03-06T18:54:56.292Z,13.93
2023-03-06T18:57:23.030Z,11.63
2023-03-06T18:59:50.004Z,13.35
2023-03-06T19:02:17.001Z,14.27
2023-03-06T19:04:43.685Z,13.48
2023-03-06T19:07:12.393Z,12.10
2023-03-06T19:09:39.047Z,15.38
2023-03-06T19:12:06.166Z,13.93
2023-03-06T19:14:32.855Z,14.18
2023-03-06T19:16:59.446Z,14.77
2023-03-06T19:19:26.335Z,14.63
2023-03-06T19:21:53.706Z,15.10
2023-03-06T19:24:20.317Z,15.05
2023-03-06T19:26:46.954Z,14.65
2023-03-06T19:29:13.563Z,16.30
2023-03-06T19:31:40.345Z,14.45
2023-03-06T19:34:07.073Z,15.70
2023-03-06T19:36:34.569Z,14.65
2023-03-06T19:39:03.885Z,15.40
2023-03-06T19:41:30.534Z,15.65
2023-03-06T19:43:59.522Z,16.63
2023-03-06T19:46:26.678Z,15.45
2023-03-06T19:49:01.940Z,15.63
2023-03-06T19:51:29.006Z,17.00
2023-03-06T19:53:56.929Z,15.75
2023-03-06T19:56:27.040Z,15.10
2023-03-06T19:58:53.845Z,16.67
2023-03-06T20:01:22.215Z,15.77
2023-03-06T20:03:50.592Z,15.48
2023-03-06T20:06:19.330Z,16.85
2023-03-06T20:08:47.451Z,16.50
2023-03-06T20:11:26.429Z,17.25
2023-03-06T20:13:53.706Z,16.83
2023-03-06T20:16:20.388Z,17.23
2023-03-06T20:18:47.078Z,17.48
2023-03-06T20:21:14.671Z,17.08
2023-03-06T20:23:41.805Z,15.95
2023-03-06T20:26:12.096Z,16.45
2023-03-06T20:28:40.575Z,17.73
2023-03-06T20:31:18.789Z,16.98
2023-03-06T20:33:48.992Z,16.98
2023-03-06T20:36:30.836Z,15.32
2023-03-06T20:39:00.588Z,14.65
2023-03-06T20:41:29.072Z,15.68
2023-03-06T20:43:55.833Z,16.30
2023-03-06T20:46:23.222Z,16.33
2023-03-06T20:48:51.980Z,15.40
2023-03-06T20:51:21.526Z,16.30
2023-03-06T20:53:49.789Z,15.43
2023-03-06T20:56:19.103Z,14.85
2023-03-06T20:58:45.766Z,14.90
2023-03-06T21:01:22.872Z,14.07
2023-03-06T21:03:49.692Z,14.63
2023-03-06T21:06:17.288Z,14.80
2023-03-06T21:08:44.054Z,14.27
2023-03-06T21:11:10.715Z,15.18
2023-03-06T21:13:37.550Z,15.02
2023-03-06T21:16:06.871Z,14.82
2023-03-06T21:18:33.834Z,14.27
2023-03-06T21:21:05.356Z,11.75
2023-03-06T21:23:32.106Z,13.48
2023-03-06T21:25:59.021Z,15.00
2023-03-06T21:28:25.716Z,16.75
2023-03-06T21:30:52.543Z,15.57
2023-03-06T21:33:19.327Z,15.52
2023-03-06T21:35:46.642Z,9.27
2023-03-06T21:38:13.934Z,15.95
2023-03-06T21:40:40.611Z,13.85
2023-03-06T21:43:07.287Z,15.70
2023-03-06T21:45:33.941Z,14.70
2023-03-06T21:48:01.001Z,11.05
2023-03-06T21:50:28.280Z,12.05
2023-03-06T21:52:56.479Z,12.88
2023-03-06T21:55:23.276Z,10.55
2023-03-06T21:57:54.120Z,9.45
2023-03-06T22:00:23.616Z,8.90
2023-03-06T22:02:50.524Z,9.32
2023-03-06T22:05:17.208Z,8.25
2023-03-06T22:07:44.150Z,7.85
2023-03-06T22:10:12.187Z,7.47
2023-03-06T22:12:39.971Z,7.35
2023-03-06T22:15:07.671Z,7.22
2023-03-06T22:17:34.325Z,7.18
2023-03-06T22:20:01.123Z,6.20
2023-03-06T22:22:27.753Z,6.45
2023-03-06T22:24:54.409Z,6.28
2023-03-06T22:27:21.761Z,5.43
2023-03-06T22:29:48.390Z,6.00
2023-03-06T22:32:15.462Z,5.68
2023-03-06T22:34:42.125Z,5.78
2023-03-06T22:37:08.759Z,4.95
2023-03-06T22:39:35.382Z,4.60
2023-03-06T22:42:02.111Z,5.00
2023-03-06T22:44:28.731Z,4.43
2023-03-06T22:46:55.400Z,5.05
2023-03-06T22:49:22.296Z,4.20
2023-03-06T22:51:48.906Z,4.32
2023-03-06T22:54:15.692Z,4.07
2023-03-06T22:56:42.338Z,3.92
2023-03-06T22:59:08.984Z,4.20
2023-03-06T23:01:35.870Z,4.40
2023-03-06T23:04:04.280Z,3.90
2023-03-06T23:06:39.854Z,3.33
2023-03-06T23:09:15.883Z,3.45
2023-03-06T23:11:42.713Z,2.85
2023-03-06T23:14:12.095Z,3.92
2023-03-06T23:16:39.520Z,3.20
2023-03-06T23:19:06.829Z,3.45
2023-03-06T23:21:34.537Z,3.58
2023-03-06T23:24:01.690Z,3.60
2023-03-06T23:26:30.255Z,4.05
2023-03-06T23:28:57.700Z,4.00
2023-03-06T23:31:28.793Z,3.53
2023-03-06T23:34:00.873Z,4.77
2023-03-06T23:36:28.692Z,4.95
2023-03-06T23:38:55.757Z,5.20
2023-03-06T23:41:23.618Z,5.15
2023-03-06T23:43:50.671Z,5.65
2023-03-06T23:46:17.825Z,5.97
2023-03-06T23:48:44.582Z,6.03
2023-03-06T23:51:22.007Z,6.22
2023-03-06T23:53:54.917Z,7.35
2023-03-06T23:56:21.737Z,6.30
2023-03-06T23:58:48.389Z,6.10
